sensor_id;sensor_type;location;lat;lon;timestamp;P1;durP1;ratioP1;P2;durP2;ratioP2
85223;SDS011;75619;51.316;4.824;2024-01-27T00:01:55;14.85;;;4.97;;
85223;SDS011;75619;51.316;4.824;2024-01-27T00:04:24;18.33;;;5.55;;
85223;SDS011;75619;51.316;4.824;2024-01-27T00:06:52;16.33;;;4.60;;
85223;SDS011;75619;51.316;4.824;2024-01-27T00:09:18;19.67;;;5.55;;
85223;SDS011;75619;51.316;4.824;2024-01-27T00:11:46;20.52;;;5.15;;
85223;SDS011;75619;51.316;4.824;2024-01-27T00:14:12;10.70;;;4.78;;
85223;SDS011;75619;51.316;4.824;2024-01-27T00:16:37;12.45;;;5.57;;
85223;SDS011;75619;51.316;4.824;2024-01-27T00:19:03;15.85;;;6.55;;
85223;SDS011;75619;51.316;4.824;2024-01-27T00:21:32;14.13;;;4.72;;
85223;SDS011;75619;51.316;4.824;2024-01-27T00:23:57;17.70;;;5.05;;
85223;SDS011;75619;51.316;4.824;2024-01-27T00:26:26;24.85;;;6.10;;
85223;SDS011;75619;51.316;4.824;2024-01-27T00:28:57;20.95;;;6.07;;
85223;SDS011;75619;51.316;4.824;2024-01-27T00:31:22;18.30;;;5.70;;
85223;SDS011;75619;51.316;4.824;2024-01-27T00:33:48;16.77;;;5.75;;
85223;SDS011;75619;51.316;4.824;2024-01-27T00:36:14;18.98;;;6.03;;
85223;SDS011;75619;51.316;4.824;2024-01-27T00:38:40;21.17;;;5.20;;
85223;SDS011;75619;51.316;4.824;2024-01-27T00:41:08;18.15;;;5.47;;
85223;SDS011;75619;51.316;4.824;2024-01-27T00:43:38;19.48;;;5.13;;
85223;SDS011;75619;51.316;4.824;2024-01-27T00:46:11;10.18;;;4.60;;
85223;SDS011;75619;51.316;4.824;2024-01-27T00:48:37;15.80;;;5.22;;
85223;SDS011;75619;51.316;4.824;2024-01-27T00:51:05;17.10;;;5.68;;
85223;SDS011;75619;51.316;4.824;2024-01-27T00:53:30;12.23;;;4.80;;
85223;SDS011;75619;51.316;4.824;2024-01-27T00:55:56;20.42;;;5.05;;
85223;SDS011;75619;51.316;4.824;2024-01-27T00:58:25;21.83;;;5.65;;
85223;SDS011;75619;51.316;4.824;2024-01-27T01:00:53;20.08;;;6.28;;
85223;SDS011;75619;51.316;4.824;2024-01-27T01:03:21;15.15;;;5.45;;
85223;SDS011;75619;51.316;4.824;2024-01-27T01:05:47;15.82;;;5.60;;
85223;SDS011;75619;51.316;4.824;2024-01-27T01:08:16;15.50;;;5.65;;
85223;SDS011;75619;51.316;4.824;2024-01-27T01:10:50;16.60;;;6.32;;
85223;SDS011;75619;51.316;4.824;2024-01-27T01:13:16;15.77;;;5.57;;
85223;SDS011;75619;51.316;4.824;2024-01-27T01:15:42;15.90;;;6.53;;
85223;SDS011;75619;51.316;4.824;2024-01-27T01:18:08;20.10;;;7.30;;
85223;SDS011;75619;51.316;4.824;2024-01-27T01:20:34;20.02;;;6.65;;
85223;SDS011;75619;51.316;4.824;2024-01-27T01:22:59;19.25;;;6.15;;
85223;SDS011;75619;51.316;4.824;2024-01-27T01:25:25;15.60;;;6.45;;
85223;SDS011;75619;51.316;4.824;2024-01-27T01:27:53;10.63;;;5.30;;
85223;SDS011;75619;51.316;4.824;2024-01-27T01:30:19;18.15;;;5.60;;
85223;SDS011;75619;51.316;4.824;2024-01-27T01:32:45;14.02;;;5.60;;
85223;SDS011;75619;51.316;4.824;2024-01-27T01:35:11;17.23;;;4.95;;
85223;SDS011;75619;51.316;4.824;2024-01-27T01:37:37;24.05;;;5.53;;
85223;SDS011;75619;51.316;4.824;2024-01-27T01:40:03;15.00;;;4.63;;
85223;SDS011;75619;51.316;4.824;2024-01-27T01:42:32;15.40;;;5.43;;
85223;SDS011;75619;51.316;4.824;2024-01-27T01:45:01;21.05;;;4.88;;
85223;SDS011;75619;51.316;4.824;2024-01-27T01:47:27;14.05;;;6.45;;
85223;SDS011;75619;51.316;4.824;2024-01-27T01:49:53;13.15;;;5.50;;
85223;SDS011;75619;51.316;4.824;2024-01-27T01:52:20;15.75;;;6.35;;
85223;SDS011;75619;51.316;4.824;2024-01-27T01:54:49;25.80;;;7.28;;
85223;SDS011;75619;51.316;4.824;2024-01-27T01:57:15;19.15;;;6.03;;
85223;SDS011;75619;51.316;4.824;2024-01-27T01:59:42;15.68;;;5.35;;
85223;SDS011;75619;51.316;4.824;2024-01-27T02:02:07;25.70;;;6.50;;
85223;SDS011;75619;51.316;4.824;2024-01-27T02:04:43;14.95;;;5.25;;
85223;SDS011;75619;51.316;4.824;2024-01-27T02:07:09;21.55;;;5.70;;
85223;SDS011;75619;51.316;4.824;2024-01-27T02:09:34;15.68;;;5.00;;
85223;SDS011;75619;51.316;4.824;2024-01-27T02:12:00;14.20;;;5.68;;
85223;SDS011;75619;51.316;4.824;2024-01-27T02:14:26;14.25;;;4.82;;
85223;SDS011;75619;51.316;4.824;2024-01-27T02:16:53;17.58;;;5.10;;
85223;SDS011;75619;51.316;4.824;2024-01-27T02:19:18;14.23;;;4.38;;
85223;SDS011;75619;51.316;4.824;2024-01-27T02:21:44;15.38;;;4.90;;
85223;SDS011;75619;51.316;4.824;2024-01-27T02:24:10;12.90;;;5.18;;
85223;SDS011;75619;51.316;4.824;2024-01-27T02:26:35;12.05;;;4.57;;
85223;SDS011;75619;51.316;4.824;2024-01-27T02:29:01;13.38;;;4.60;;
85223;SDS011;75619;51.316;4.824;2024-01-27T02:31:27;13.80;;;4.63;;
85223;SDS011;75619;51.316;4.824;2024-01-27T02:33:52;18.80;;;4.55;;
85223;SDS011;75619;51.316;4.824;2024-01-27T02:36:18;14.00;;;5.47;;
85223;SDS011;75619;51.316;4.824;2024-01-27T02:38:43;20.65;;;5.53;;
85223;SDS011;75619;51.316;4.824;2024-01-27T02:41:09;15.95;;;4.78;;
85223;SDS011;75619;51.316;4.824;2024-01-27T02:43:37;12.70;;;4.88;;
85223;SDS011;75619;51.316;4.824;2024-01-27T02:46:03;18.98;;;5.28;;
85223;SDS011;75619;51.316;4.824;2024-01-27T02:48:31;18.55;;;5.60;;
85223;SDS011;75619;51.316;4.824;2024-01-27T02:50:57;15.43;;;5.15;;
85223;SDS011;75619;51.316;4.824;2024-01-27T02:53:22;14.63;;;5.20;;
85223;SDS011;75619;51.316;4.824;2024-01-27T02:55:48;9.77;;;4.68;;
85223;SDS011;75619;51.316;4.824;2024-01-27T02:58:13;20.10;;;5.00;;
85223;SDS011;75619;51.316;4.824;2024-01-27T03:00:39;22.35;;;5.18;;
85223;SDS011;75619;51.316;4.824;2024-01-27T03:03:04;19.73;;;5.05;;
85223;SDS011;75619;51.316;4.824;2024-01-27T03:05:30;13.68;;;4.93;;
85223;SDS011;75619;51.316;4.824;2024-01-27T03:07:55;13.75;;;5.28;;
85223;SDS011;75619;51.316;4.824;2024-01-27T03:10:22;20.92;;;5.72;;
85223;SDS011;75619;51.316;4.824;2024-01-27T03:12:47;14.15;;;5.53;;
85223;SDS011;75619;51.316;4.824;2024-01-27T03:15:13;12.00;;;4.72;;
85223;SDS011;75619;51.316;4.824;2024-01-27T03:17:39;16.23;;;6.75;;
85223;SDS011;75619;51.316;4.824;2024-01-27T03:20:05;13.95;;;4.65;;
85223;SDS011;75619;51.316;4.824;2024-01-27T03:22:33;9.15;;;4.78;;
85223;SDS011;75619;51.316;4.824;2024-01-27T03:24:59;22.50;;;5.65;;
85223;SDS011;75619;51.316;4.824;2024-01-27T03:27:24;15.32;;;5.85;;
85223;SDS011;75619;51.316;4.824;2024-01-27T03:29:50;21.55;;;5.80;;
85223;SDS011;75619;51.316;4.824;2024-01-27T03:32:15;21.45;;;5.47;;
85223;SDS011;75619;51.316;4.824;2024-01-27T03:34:43;20.65;;;5.97;;
85223;SDS011;75619;51.316;4.824;2024-01-27T03:37:10;18.25;;;5.25;;
85223;SDS011;75619;51.316;4.824;2024-01-27T03:39:36;13.15;;;5.57;;
85223;SDS011;75619;51.316;4.824;2024-01-27T03:42:01;19.58;;;6.15;;
85223;SDS011;75619;51.316;4.824;2024-01-27T03:44:27;17.50;;;6.28;;
85223;SDS011;75619;51.316;4.824;2024-01-27T03:46:52;16.73;;;5.20;;
85223;SDS011;75619;51.316;4.824;2024-01-27T03:49:18;14.23;;;6.18;;
85223;SDS011;75619;51.316;4.824;2024-01-27T03:51:43;20.00;;;6.13;;
85223;SDS011;75619;51.316;4.824;2024-01-27T03:54:09;13.77;;;6.32;;
85223;SDS011;75619;51.316;4.824;2024-01-27T03:56:34;17.67;;;5.60;;
85223;SDS011;75619;51.316;4.824;2024-01-27T03:59:00;13.93;;;5.72;;
85223;SDS011;75619;51.316;4.824;2024-01-27T04:01:26;18.23;;;6.07;;
85223;SDS011;75619;51.316;4.824;2024-01-27T04:03:51;17.55;;;5.80;;
85223;SDS011;75619;51.316;4.824;2024-01-27T04:06:17;16.05;;;6.05;;
85223;SDS011;75619;51.316;4.824;2024-01-27T04:08:42;13.52;;;5.95;;
85223;SDS011;75619;51.316;4.824;2024-01-27T04:11:18;13.93;;;6.03;;
85223;SDS011;75619;51.316;4.824;2024-01-27T04:13:45;20.30;;;6.45;;
85223;SDS011;75619;51.316;4.824;2024-01-27T04:16:11;19.75;;;6.15;;
85223;SDS011;75619;51.316;4.824;2024-01-27T04:18:38;19.75;;;6.35;;
85223;SDS011;75619;51.316;4.824;2024-01-27T04:21:04;13.90;;;6.32;;
85223;SDS011;75619;51.316;4.824;2024-01-27T04:23:29;17.60;;;5.30;;
85223;SDS011;75619;51.316;4.824;2024-01-27T04:25:55;17.52;;;5.70;;
85223;SDS011;75619;51.316;4.824;2024-01-27T04:28:21;15.68;;;6.50;;
85223;SDS011;75619;51.316;4.824;2024-01-27T04:30:46;21.15;;;5.60;;
85223;SDS011;75619;51.316;4.824;2024-01-27T04:33:12;21.38;;;7.03;;
85223;SDS011;75619;51.316;4.824;2024-01-27T04:35:38;21.08;;;6.18;;
85223;SDS011;75619;51.316;4.824;2024-01-27T04:38:03;13.57;;;5.35;;
85223;SDS011;75619;51.316;4.824;2024-01-27T04:40:29;21.70;;;5.80;;
85223;SDS011;75619;51.316;4.824;2024-01-27T04:42:55;22.02;;;6.85;;
85223;SDS011;75619;51.316;4.824;2024-01-27T04:45:20;12.55;;;5.80;;
85223;SDS011;75619;51.316;4.824;2024-01-27T04:47:46;15.65;;;6.22;;
85223;SDS011;75619;51.316;4.824;2024-01-27T04:50:11;16.60;;;6.18;;
85223;SDS011;75619;51.316;4.824;2024-01-27T04:52:37;18.08;;;6.00;;
85223;SDS011;75619;51.316;4.824;2024-01-27T04:55:03;19.75;;;7.10;;
85223;SDS011;75619;51.316;4.824;2024-01-27T04:57:28;19.35;;;5.90;;
85223;SDS011;75619;51.316;4.824;2024-01-27T04:59:54;13.13;;;5.45;;
85223;SDS011;75619;51.316;4.824;2024-01-27T05:02:20;17.30;;;5.95;;
85223;SDS011;75619;51.316;4.824;2024-01-27T05:04:45;15.05;;;6.05;;
85223;SDS011;75619;51.316;4.824;2024-01-27T05:07:11;15.23;;;6.40;;
85223;SDS011;75619;51.316;4.824;2024-01-27T05:09:36;19.65;;;6.22;;
85223;SDS011;75619;51.316;4.824;2024-01-27T05:12:02;18.08;;;6.22;;
85223;SDS011;75619;51.316;4.824;2024-01-27T05:14:28;21.13;;;5.60;;
85223;SDS011;75619;51.316;4.824;2024-01-27T05:16:53;11.25;;;5.35;;
85223;SDS011;75619;51.316;4.824;2024-01-27T05:19:19;17.38;;;5.90;;
85223;SDS011;75619;51.316;4.824;2024-01-27T05:21:44;16.52;;;5.40;;
85223;SDS011;75619;51.316;4.824;2024-01-27T05:24:10;16.65;;;6.45;;
85223;SDS011;75619;51.316;4.824;2024-01-27T05:26:35;19.88;;;6.95;;
85223;SDS011;75619;51.316;4.824;2024-01-27T05:29:01;11.65;;;5.07;;
85223;SDS011;75619;51.316;4.824;2024-01-27T05:31:26;14.90;;;6.72;;
85223;SDS011;75619;51.316;4.824;2024-01-27T05:33:52;16.80;;;6.45;;
85223;SDS011;75619;51.316;4.824;2024-01-27T05:36:17;18.60;;;5.68;;
85223;SDS011;75619;51.316;4.824;2024-01-27T05:38:43;12.73;;;6.30;;
85223;SDS011;75619;51.316;4.824;2024-01-27T05:41:09;13.23;;;6.32;;
85223;SDS011;75619;51.316;4.824;2024-01-27T05:43:34;17.67;;;7.53;;
85223;SDS011;75619;51.316;4.824;2024-01-27T05:46:00;20.63;;;7.45;;
85223;SDS011;75619;51.316;4.824;2024-01-27T05:48:25;17.30;;;7.03;;
85223;SDS011;75619;51.316;4.824;2024-01-27T05:50:58;16.40;;;6.78;;
85223;SDS011;75619;51.316;4.824;2024-01-27T05:53:25;16.45;;;6.55;;
85223;SDS011;75619;51.316;4.824;2024-01-27T05:55:50;17.85;;;6.72;;
85223;SDS011;75619;51.316;4.824;2024-01-27T05:58:16;15.20;;;7.82;;
85223;SDS011;75619;51.316;4.824;2024-01-27T06:00:42;15.43;;;6.25;;
85223;SDS011;75619;51.316;4.824;2024-01-27T06:03:09;23.05;;;7.25;;
85223;SDS011;75619;51.316;4.824;2024-01-27T06:05:35;19.33;;;7.00;;
85223;SDS011;75619;51.316;4.824;2024-01-27T06:08:00;15.45;;;6.63;;
85223;SDS011;75619;51.316;4.824;2024-01-27T06:10:26;17.98;;;7.25;;
85223;SDS011;75619;51.316;4.824;2024-01-27T06:12:51;17.42;;;6.65;;
85223;SDS011;75619;51.316;4.824;2024-01-27T06:15:17;20.88;;;8.57;;
85223;SDS011;75619;51.316;4.824;2024-01-27T06:17:42;24.40;;;8.13;;
85223;SDS011;75619;51.316;4.824;2024-01-27T06:20:08;19.17;;;7.82;;
85223;SDS011;75619;51.316;4.824;2024-01-27T06:22:33;17.85;;;6.03;;
85223;SDS011;75619;51.316;4.824;2024-01-27T06:24:59;12.57;;;6.68;;
85223;SDS011;75619;51.316;4.824;2024-01-27T06:27:24;19.40;;;7.45;;
85223;SDS011;75619;51.316;4.824;2024-01-27T06:29:50;16.35;;;6.78;;
85223;SDS011;75619;51.316;4.824;2024-01-27T06:32:15;14.40;;;6.70;;
85223;SDS011;75619;51.316;4.824;2024-01-27T06:34:41;19.17;;;6.70;;
85223;SDS011;75619;51.316;4.824;2024-01-27T06:37:07;21.02;;;7.68;;
85223;SDS011;75619;51.316;4.824;2024-01-27T06:39:32;16.55;;;7.07;;
85223;SDS011;75619;51.316;4.824;2024-01-27T06:41:58;18.02;;;6.95;;
85223;SDS011;75619;51.316;4.824;2024-01-27T06:44:23;26.73;;;7.93;;
85223;SDS011;75619;51.316;4.824;2024-01-27T06:46:49;23.63;;;8.57;;
85223;SDS011;75619;51.316;4.824;2024-01-27T06:49:15;21.00;;;7.57;;
85223;SDS011;75619;51.316;4.824;2024-01-27T06:51:43;19.98;;;8.52;;
85223;SDS011;75619;51.316;4.824;2024-01-27T06:54:09;19.90;;;8.27;;
85223;SDS011;75619;51.316;4.824;2024-01-27T06:56:34;25.27;;;9.68;;
85223;SDS011;75619;51.316;4.824;2024-01-27T06:59:00;18.33;;;7.60;;
85223;SDS011;75619;51.316;4.824;2024-01-27T07:01:25;24.17;;;9.20;;
85223;SDS011;75619;51.316;4.824;2024-01-27T07:03:51;20.45;;;7.65;;
85223;SDS011;75619;51.316;4.824;2024-01-27T07:06:17;20.95;;;7.55;;
85223;SDS011;75619;51.316;4.824;2024-01-27T07:08:42;16.83;;;7.50;;
85223;SDS011;75619;51.316;4.824;2024-01-27T07:11:08;23.67;;;8.13;;
85223;SDS011;75619;51.316;4.824;2024-01-27T07:13:33;25.08;;;9.20;;
85223;SDS011;75619;51.316;4.824;2024-01-27T07:15:58;30.52;;;9.80;;
85223;SDS011;75619;51.316;4.824;2024-01-27T07:18:24;20.95;;;9.63;;
85223;SDS011;75619;51.316;4.824;2024-01-27T07:20:50;24.70;;;9.15;;
85223;SDS011;75619;51.316;4.824;2024-01-27T07:23:16;23.08;;;8.95;;
85223;SDS011;75619;51.316;4.824;2024-01-27T07:25:43;15.02;;;9.07;;
85223;SDS011;75619;51.316;4.824;2024-01-27T07:28:08;21.52;;;9.35;;
85223;SDS011;75619;51.316;4.824;2024-01-27T07:30:34;20.52;;;8.27;;
85223;SDS011;75619;51.316;4.824;2024-01-27T07:32:59;24.00;;;9.25;;
85223;SDS011;75619;51.316;4.824;2024-01-27T07:35:25;20.23;;;8.48;;
85223;SDS011;75619;51.316;4.824;2024-01-27T07:37:50;23.45;;;10.95;;
85223;SDS011;75619;51.316;4.824;2024-01-27T07:40:16;24.50;;;10.23;;
85223;SDS011;75619;51.316;4.824;2024-01-27T07:42:41;19.48;;;9.65;;
85223;SDS011;75619;51.316;4.824;2024-01-27T07:45:07;25.52;;;9.80;;
85223;SDS011;75619;51.316;4.824;2024-01-27T07:47:34;22.88;;;8.55;;
85223;SDS011;75619;51.316;4.824;2024-01-27T07:49:59;28.17;;;9.88;;
85223;SDS011;75619;51.316;4.824;2024-01-27T07:52:25;23.75;;;8.40;;
85223;SDS011;75619;51.316;4.824;2024-01-27T07:54:51;24.80;;;8.95;;
85223;SDS011;75619;51.316;4.824;2024-01-27T07:57:16;17.33;;;7.97;;
85223;SDS011;75619;51.316;4.824;2024-01-27T07:59:42;26.20;;;8.25;;
85223;SDS011;75619;51.316;4.824;2024-01-27T08:02:07;28.13;;;9.15;;
85223;SDS011;75619;51.316;4.824;2024-01-27T08:04:33;19.35;;;8.15;;
85223;SDS011;75619;51.316;4.824;2024-01-27T08:06:59;19.42;;;8.77;;
85223;SDS011;75619;51.316;4.824;2024-01-27T08:09:31;24.90;;;8.48;;
85223;SDS011;75619;51.316;4.824;2024-01-27T08:11:56;22.70;;;8.43;;
85223;SDS011;75619;51.316;4.824;2024-01-27T08:14:22;35.50;;;10.70;;
85223;SDS011;75619;51.316;4.824;2024-01-27T08:16:48;27.73;;;8.77;;
85223;SDS011;75619;51.316;4.824;2024-01-27T08:19:13;30.95;;;9.55;;
85223;SDS011;75619;51.316;4.824;2024-01-27T08:21:45;29.08;;;8.32;;
85223;SDS011;75619;51.316;4.824;2024-01-27T08:24:11;20.83;;;8.38;;
85223;SDS011;75619;51.316;4.824;2024-01-27T08:26:36;28.95;;;8.75;;
85223;SDS011;75619;51.316;4.824;2024-01-27T08:29:02;22.05;;;8.48;;
85223;SDS011;75619;51.316;4.824;2024-01-27T08:31:27;33.95;;;11.10;;
85223;SDS011;75619;51.316;4.824;2024-01-27T08:33:53;31.98;;;8.13;;
85223;SDS011;75619;51.316;4.824;2024-01-27T08:36:18;17.73;;;7.72;;
85223;SDS011;75619;51.316;4.824;2024-01-27T08:38:44;33.70;;;14.82;;
85223;SDS011;75619;51.316;4.824;2024-01-27T08:41:10;29.48;;;12.10;;
85223;SDS011;75619;51.316;4.824;2024-01-27T08:43:35;60.10;;;23.95;;
85223;SDS011;75619;51.316;4.824;2024-01-27T08:46:01;50.88;;;19.50;;
85223;SDS011;75619;51.316;4.824;2024-01-27T08:48:26;27.20;;;12.77;;
85223;SDS011;75619;51.316;4.824;2024-01-27T08:50:52;28.17;;;11.68;;
85223;SDS011;75619;51.316;4.824;2024-01-27T08:53:17;29.08;;;12.32;;
85223;SDS011;75619;51.316;4.824;2024-01-27T08:55:43;44.72;;;17.38;;
85223;SDS011;75619;51.316;4.824;2024-01-27T08:58:08;42.03;;;15.50;;
85223;SDS011;75619;51.316;4.824;2024-01-27T09:00:34;31.77;;;11.07;;
85223;SDS011;75619;51.316;4.824;2024-01-27T09:02:59;26.63;;;9.38;;
85223;SDS011;75619;51.316;4.824;2024-01-27T09:05:26;30.70;;;12.57;;
85223;SDS011;75619;51.316;4.824;2024-01-27T09:07:53;20.38;;;9.18;;
85223;SDS011;75619;51.316;4.824;2024-01-27T09:10:18;23.50;;;8.70;;
85223;SDS011;75619;51.316;4.824;2024-01-27T09:12:44;29.67;;;9.13;;
85223;SDS011;75619;51.316;4.824;2024-01-27T09:15:09;22.17;;;9.18;;
85223;SDS011;75619;51.316;4.824;2024-01-27T09:17:35;26.83;;;10.80;;
85223;SDS011;75619;51.316;4.824;2024-01-27T09:20:01;22.35;;;9.30;;
85223;SDS011;75619;51.316;4.824;2024-01-27T09:22:27;25.13;;;9.45;;
85223;SDS011;75619;51.316;4.824;2024-01-27T09:24:53;17.80;;;9.55;;
85223;SDS011;75619;51.316;4.824;2024-01-27T09:27:18;24.38;;;9.98;;
85223;SDS011;75619;51.316;4.824;2024-01-27T09:29:44;24.55;;;8.55;;
85223;SDS011;75619;51.316;4.824;2024-01-27T09:32:10;18.73;;;8.02;;
85223;SDS011;75619;51.316;4.824;2024-01-27T09:34:36;17.58;;;7.35;;
85223;SDS011;75619;51.316;4.824;2024-01-27T09:46:45;18.00;;;7.38;;
85223;SDS011;75619;51.316;4.824;2024-01-27T09:49:13;19.48;;;7.22;;
85223;SDS011;75619;51.316;4.824;2024-01-27T09:51:40;19.10;;;7.57;;
85223;SDS011;75619;51.316;4.824;2024-01-27T09:54:06;16.65;;;6.20;;
85223;SDS011;75619;51.316;4.824;2024-01-27T09:56:32;28.42;;;8.00;;
85223;SDS011;75619;51.316;4.824;2024-01-27T09:58:59;19.85;;;6.55;;
85223;SDS011;75619;51.316;4.824;2024-01-27T10:01:25;24.05;;;7.55;;
85223;SDS011;75619;51.316;4.824;2024-01-27T10:03:54;21.20;;;6.80;;
85223;SDS011;75619;51.316;4.824;2024-01-27T10:06:20;34.97;;;7.72;;
85223;SDS011;75619;51.316;4.824;2024-01-27T10:08:55;17.40;;;6.00;;
85223;SDS011;75619;51.316;4.824;2024-01-27T10:11:21;22.48;;;7.85;;
85223;SDS011;75619;51.316;4.824;2024-01-27T10:13:57;38.13;;;7.45;;
85223;SDS011;75619;51.316;4.824;2024-01-27T10:19:03;33.60;;;6.38;;
85223;SDS011;75619;51.316;4.824;2024-01-27T10:21:29;28.88;;;5.75;;
85223;SDS011;75619;51.316;4.824;2024-01-27T10:23:54;25.30;;;5.75;;
85223;SDS011;75619;51.316;4.824;2024-01-27T10:26:20;18.88;;;6.03;;
85223;SDS011;75619;51.316;4.824;2024-01-27T10:28:55;17.75;;;4.40;;
85223;SDS011;75619;51.316;4.824;2024-01-27T10:31:25;26.50;;;5.53;;
85223;SDS011;75619;51.316;4.824;2024-01-27T10:33:52;20.85;;;7.53;;
85223;SDS011;75619;51.316;4.824;2024-01-27T10:36:19;19.45;;;5.47;;
85223;SDS011;75619;51.316;4.824;2024-01-27T10:38:45;19.40;;;8.02;;
85223;SDS011;75619;51.316;4.824;2024-01-27T10:41:10;23.83;;;6.65;;
85223;SDS011;75619;51.316;4.824;2024-01-27T10:43:37;19.38;;;5.47;;
85223;SDS011;75619;51.316;4.824;2024-01-27T10:46:05;16.17;;;5.15;;
85223;SDS011;75619;51.316;4.824;2024-01-27T10:48:31;16.95;;;5.88;;
85223;SDS011;75619;51.316;4.824;2024-01-27T10:51:00;20.02;;;5.63;;
85223;SDS011;75619;51.316;4.824;2024-01-27T10:53:32;17.20;;;5.30;;
85223;SDS011;75619;51.316;4.824;2024-01-27T10:56:00;15.48;;;4.38;;
85223;SDS011;75619;51.316;4.824;2024-01-27T10:58:29;21.75;;;5.40;;
85223;SDS011;75619;51.316;4.824;2024-01-27T11:00:56;16.58;;;5.47;;
85223;SDS011;75619;51.316;4.824;2024-01-27T11:03:23;12.13;;;4.55;;
85223;SDS011;75619;51.316;4.824;2024-01-27T11:05:51;14.55;;;4.30;;
85223;SDS011;75619;51.316;4.824;2024-01-27T11:08:18;16.42;;;5.07;;
85223;SDS011;75619;51.316;4.824;2024-01-27T11:10:44;12.65;;;3.75;;
85223;SDS011;75619;51.316;4.824;2024-01-27T11:13:10;24.52;;;4.97;;
85223;SDS011;75619;51.316;4.824;2024-01-27T11:15:36;14.88;;;5.75;;
85223;SDS011;75619;51.316;4.824;2024-01-27T11:18:02;12.13;;;3.55;;
85223;SDS011;75619;51.316;4.824;2024-01-27T11:20:32;9.30;;;2.72;;
85223;SDS011;75619;51.316;4.824;2024-01-27T11:23:09;13.57;;;3.60;;
85223;SDS011;75619;51.316;4.824;2024-01-27T11:25:35;18.20;;;4.05;;
85223;SDS011;75619;51.316;4.824;2024-01-27T11:28:09;17.50;;;5.03;;
85223;SDS011;75619;51.316;4.824;2024-01-27T11:30:39;22.38;;;6.05;;
85223;SDS011;75619;51.316;4.824;2024-01-27T11:33:05;18.05;;;4.90;;
85223;SDS011;75619;51.316;4.824;2024-01-27T11:35:31;15.23;;;4.68;;
85223;SDS011;75619;51.316;4.824;2024-01-27T11:37:57;16.65;;;4.18;;
85223;SDS011;75619;51.316;4.824;2024-01-27T11:40:22;19.13;;;4.22;;
85223;SDS011;75619;51.316;4.824;2024-01-27T11:42:57;21.17;;;4.35;;
85223;SDS011;75619;51.316;4.824;2024-01-27T11:45:24;12.23;;;4.10;;
85223;SDS011;75619;51.316;4.824;2024-01-27T11:47:50;15.88;;;4.07;;
85223;SDS011;75619;51.316;4.824;2024-01-27T11:50:17;17.38;;;3.60;;
85223;SDS011;75619;51.316;4.824;2024-01-27T11:52:43;14.48;;;3.97;;
85223;SDS011;75619;51.316;4.824;2024-01-27T11:55:09;12.38;;;3.30;;
85223;SDS011;75619;51.316;4.824;2024-01-27T11:57:35;15.55;;;4.00;;
85223;SDS011;75619;51.316;4.824;2024-01-27T12:00:00;9.73;;;3.10;;
85223;SDS011;75619;51.316;4.824;2024-01-27T12:02:26;20.65;;;7.88;;
85223;SDS011;75619;51.316;4.824;2024-01-27T12:04:52;18.30;;;4.10;;
85223;SDS011;75619;51.316;4.824;2024-01-27T12:07:18;11.25;;;3.45;;
85223;SDS011;75619;51.316;4.824;2024-01-27T12:09:44;15.50;;;3.63;;
85223;SDS011;75619;51.316;4.824;2024-01-27T12:12:11;10.05;;;3.88;;
85223;SDS011;75619;51.316;4.824;2024-01-27T12:14:40;13.00;;;3.58;;
85223;SDS011;75619;51.316;4.824;2024-01-27T12:19:35;16.50;;;3.17;;
85223;SDS011;75619;51.316;4.824;2024-01-27T12:22:02;13.10;;;4.00;;
85223;SDS011;75619;51.316;4.824;2024-01-27T12:24:28;12.18;;;3.97;;
85223;SDS011;75619;51.316;4.824;2024-01-27T12:26:57;16.48;;;4.32;;
85223;SDS011;75619;51.316;4.824;2024-01-27T12:29:23;17.77;;;2.95;;
85223;SDS011;75619;51.316;4.824;2024-01-27T12:31:48;10.80;;;3.05;;
85223;SDS011;75619;51.316;4.824;2024-01-27T12:34:14;10.80;;;2.30;;
85223;SDS011;75619;51.316;4.824;2024-01-27T12:36:43;12.82;;;3.35;;
85223;SDS011;75619;51.316;4.824;2024-01-27T12:39:09;13.07;;;3.72;;
85223;SDS011;75619;51.316;4.824;2024-01-27T12:41:34;13.20;;;2.80;;
85223;SDS011;75619;51.316;4.824;2024-01-27T12:44:00;16.13;;;4.50;;
85223;SDS011;75619;51.316;4.824;2024-01-27T12:46:27;11.65;;;3.25;;
85223;SDS011;75619;51.316;4.824;2024-01-27T12:48:53;11.93;;;2.38;;
85223;SDS011;75619;51.316;4.824;2024-01-27T12:51:19;11.02;;;2.95;;
85223;SDS011;75619;51.316;4.824;2024-01-27T12:53:44;8.38;;;1.52;;
85223;SDS011;75619;51.316;4.824;2024-01-27T12:56:10;8.60;;;1.90;;
85223;SDS011;75619;51.316;4.824;2024-01-27T12:58:37;8.88;;;2.10;;
85223;SDS011;75619;51.316;4.824;2024-01-27T13:01:03;18.05;;;3.08;;
85223;SDS011;75619;51.316;4.824;2024-01-27T13:03:30;12.30;;;2.33;;
85223;SDS011;75619;51.316;4.824;2024-01-27T13:05:56;9.32;;;2.17;;
85223;SDS011;75619;51.316;4.824;2024-01-27T13:08:22;12.43;;;2.78;;
85223;SDS011;75619;51.316;4.824;2024-01-27T13:10:48;9.70;;;2.95;;
85223;SDS011;75619;51.316;4.824;2024-01-27T13:13:14;12.07;;;2.45;;
85223;SDS011;75619;51.316;4.824;2024-01-27T13:15:40;11.13;;;3.42;;
85223;SDS011;75619;51.316;4.824;2024-01-27T13:18:05;13.18;;;2.78;;
85223;SDS011;75619;51.316;4.824;2024-01-27T13:20:31;8.60;;;2.33;;
85223;SDS011;75619;51.316;4.824;2024-01-27T13:22:58;14.40;;;2.53;;
85223;SDS011;75619;51.316;4.824;2024-01-27T13:25:24;13.63;;;2.55;;
85223;SDS011;75619;51.316;4.824;2024-01-27T13:27:49;14.88;;;3.65;;
85223;SDS011;75619;51.316;4.824;2024-01-27T13:30:15;12.23;;;2.30;;
85223;SDS011;75619;51.316;4.824;2024-01-27T13:32:42;15.45;;;3.55;;
85223;SDS011;75619;51.316;4.824;2024-01-27T13:35:08;12.85;;;3.15;;
85223;SDS011;75619;51.316;4.824;2024-01-27T13:37:34;9.23;;;2.33;;
85223;SDS011;75619;51.316;4.824;2024-01-27T13:40:00;14.95;;;2.42;;
85223;SDS011;75619;51.316;4.824;2024-01-27T13:42:26;7.50;;;2.65;;
85223;SDS011;75619;51.316;4.824;2024-01-27T13:44:52;12.80;;;2.35;;
85223;SDS011;75619;51.316;4.824;2024-01-27T13:47:17;8.30;;;2.63;;
85223;SDS011;75619;51.316;4.824;2024-01-27T13:49:43;5.68;;;2.08;;
85223;SDS011;75619;51.316;4.824;2024-01-27T13:52:09;16.90;;;2.65;;
85223;SDS011;75619;51.316;4.824;2024-01-27T13:54:36;9.18;;;2.42;;
85223;SDS011;75619;51.316;4.824;2024-01-27T13:57:02;12.57;;;2.40;;
85223;SDS011;75619;51.316;4.824;2024-01-27T13:59:27;8.07;;;2.47;;
85223;SDS011;75619;51.316;4.824;2024-01-27T14:01:53;10.82;;;2.20;;
85223;SDS011;75619;51.316;4.824;2024-01-27T14:04:19;17.25;;;6.25;;
85223;SDS011;75619;51.316;4.824;2024-01-27T14:06:45;10.52;;;4.45;;
85223;SDS011;75619;51.316;4.824;2024-01-27T14:09:11;7.22;;;3.75;;
85223;SDS011;75619;51.316;4.824;2024-01-27T14:11:38;19.42;;;3.47;;
85223;SDS011;75619;51.316;4.824;2024-01-27T14:14:04;15.85;;;4.25;;
85223;SDS011;75619;51.316;4.824;2024-01-27T14:16:29;13.55;;;4.93;;
85223;SDS011;75619;51.316;4.824;2024-01-27T14:18:55;11.30;;;4.18;;
85223;SDS011;75619;51.316;4.824;2024-01-27T14:21:21;14.57;;;5.75;;
85223;SDS011;75619;51.316;4.824;2024-01-27T14:23:47;8.93;;;4.15;;
85223;SDS011;75619;51.316;4.824;2024-01-27T14:26:14;20.25;;;3.83;;
85223;SDS011;75619;51.316;4.824;2024-01-27T14:28:43;10.35;;;2.50;;
85223;SDS011;75619;51.316;4.824;2024-01-27T14:31:10;13.90;;;2.90;;
85223;SDS011;75619;51.316;4.824;2024-01-27T14:33:36;16.63;;;2.65;;
85223;SDS011;75619;51.316;4.824;2024-01-27T14:36:01;8.88;;;3.05;;
85223;SDS011;75619;51.316;4.824;2024-01-27T14:38:27;11.35;;;4.75;;
85223;SDS011;75619;51.316;4.824;2024-01-27T14:40:52;9.60;;;4.15;;
85223;SDS011;75619;51.316;4.824;2024-01-27T14:43:18;16.95;;;7.05;;
85223;SDS011;75619;51.316;4.824;2024-01-27T14:45:44;23.00;;;11.10;;